Time;durP1;ratioP1;P1;durP2;ratioP2;P2;SDS_P1;SDS_P2;PMS_P1;PMS_P2;Temp;Humidity;BMP_temperature;BMP_pressure;BME280_temperature;BME280_humidity;BME280_pressure;Samples;Min_cycle;Max_cycle;Signal;HPM_P1;HPM_P2
2022/06/05 00:00:15;;;;;;;11.33;8.10;;;20.10;99.90;;;;;;5005828;28;20197;-74
2022/06/05 00:03:07;;;;;;;10.20;8.63;;;20.10;99.90;;;;;;5013350;28;20200;-74
2022/06/05 00:06:05;;;;;;;9.87;8.87;;;19.90;99.90;;;;;;5013226;28;20220;-75
2022/06/05 00:08:32;;;;;;;9.90;8.23;;;19.80;99.90;;;;;;5009261;28;20617;-75
2022/06/05 00:11:00;;;;;;;9.67;8.53;;;19.80;99.90;;;;;;4995311;28;20672;-74
2022/06/05 00:13:36;;;;;;;9.27;8.37;;;19.90;99.90;;;;;;5013346;28;20279;-74
2022/06/05 00:16:04;;;;;;;13.67;9.43;;;19.90;99.90;;;;;;4997439;28;20219;-74
2022/06/05 00:18:33;;;;;;;11.07;8.87;;;20.00;99.90;;;;;;5013062;28;20882;-74
2022/06/05 00:21:00;;;;;;;10.07;8.27;;;19.90;99.90;;;;;;5012550;28;20197;-75
2022/06/05 00:23:27;;;;;;;8.90;8.00;;;19.80;99.90;;;;;;5012279;28;20561;-74
2022/06/05 00:26:25;;;;;;;9.70;8.70;;;19.80;99.90;;;;;;5012456;28;20638;-75
2022/06/05 00:28:56;;;;;;;10.53;8.80;;;19.80;99.90;;;;;;4995378;28;20615;-75
2022/06/05 00:31:32;;;;;;;9.63;8.63;;;19.70;99.90;;;;;;5007425;28;20216;-75
2022/06/05 00:33:59;;;;;;;9.30;8.30;;;19.70;99.90;;;;;;5004652;28;20732;-74
2022/06/05 00:36:34;;;;;;;10.20;8.57;;;19.70;99.90;;;;;;5012607;28;20227;-74
2022/06/05 00:39:19;;;;;;;9.23;8.23;;;19.70;99.90;;;;;;5012747;28;20188;-75
2022/06/05 00:42:09;;;;;;;9.57;8.60;;;19.70;99.90;;;;;;5011366;28;20201;-74
2022/06/05 00:44:40;;;;;;;9.43;8.43;;;19.70;99.90;;;;;;4994785;28;20199;-74
2022/06/05 00:47:10;;;;;;;9.43;8.43;;;19.70;99.90;;;;;;4988192;28;20196;-74
2022/06/05 00:49:51;;;;;;;9.63;8.50;;;19.70;99.90;;;;;;5009968;28;20196;-75
2022/06/05 00:52:19;;;;;;;11.00;8.13;;;19.70;99.90;;;;;;4989188;28;20271;-74
2022/06/05 00:54:45;;;;;;;8.90;8.00;;;19.70;99.90;;;;;;5011935;28;20220;-74
2022/06/05 00:57:14;;;;;;;9.53;8.53;;;19.70;99.90;;;;;;5012463;28;20216;-75
2022/06/05 00:59:43;;;;;;;9.40;8.40;;;19.70;99.90;;;;;;5008509;28;20280;-74
2022/06/05 01:02:11;;;;;;;8.70;7.80;;;19.80;99.90;;;;;;5012844;28;20218;-74
2022/06/05 01:04:42;;;;;;;9.13;8.03;;;19.60;99.90;;;;;;5012069;28;20274;-74
2022/06/05 01:07:09;;;;;;;8.83;7.90;;;19.70;99.90;;;;;;5005611;28;20284;-74
2022/06/05 01:09:36;;;;;;;10.00;8.50;;;19.60;99.90;;;;;;5006738;28;20209;-74
2022/06/05 01:12:52;;;;;;;9.13;8.00;;;19.60;99.90;;;;;;5004534;28;20223;-75
2022/06/05 01:15:29;;;;;;;8.90;8.00;;;19.70;99.90;;;;;;4956009;28;20629;-74
2022/06/05 01:18:21;;;;;;;9.63;8.43;;;19.70;99.90;;;;;;5011853;28;20245;-74
2022/06/05 01:21:01;;;;;;;9.17;8.27;;;19.70;99.90;;;;;;5010515;28;20197;-74
2022/06/05 01:23:55;;;;;;;9.00;8.10;;;19.80;99.90;;;;;;5005317;28;20197;-74
2022/06/05 01:26:40;;;;;;;8.83;7.93;;;19.80;99.90;;;;;;5006386;28;20232;-74
2022/06/05 01:29:21;;;;;;;8.80;7.90;;;19.70;99.90;;;;;;5004375;28;20203;-74
2022/06/05 01:31:54;;;;;;;13.27;8.00;;;19.70;99.90;;;;;;5005770;28;20200;-74
2022/06/05 01:34:22;;;;;;;9.03;7.83;;;19.70;99.90;;;;;;5004047;28;20204;-73
2022/06/05 01:36:53;;;;;;;10.30;8.13;;;19.70;99.90;;;;;;5008322;28;20774;-74
2022/06/05 01:39:41;;;;;;;11.77;8.23;;;19.70;99.90;;;;;;5010969;28;20258;-74
2022/06/05 01:42:14;;;;;;;9.83;8.30;;;19.60;99.90;;;;;;5003342;28;20196;-73
2022/06/05 01:44:46;;;;;;;9.13;8.20;;;19.60;99.90;;;;;;5010097;28;20224;-74
2022/06/05 01:47:23;;;;;;;8.47;7.60;;;19.60;99.90;;;;;;5010776;28;20196;-74
2022/06/05 01:49:54;;;;;;;8.50;7.63;;;19.60;99.90;;;;;;5007062;28;20270;-74
2022/06/05 01:52:32;;;;;;;8.97;8.03;;;19.50;99.90;;;;;;5010881;28;20208;-74
2022/06/05 01:55:08;;;;;;;8.20;7.40;;;19.50;99.90;;;;;;5009407;28;20222;-74
2022/06/05 01:57:36;;;;;;;8.90;7.47;;;19.50;99.90;;;;;;5006058;28;20223;-75
2022/06/05 02:00:05;;;;;;;10.10;7.67;;;19.50;99.90;;;;;;5010331;28;20192;-74
2022/06/05 02:02:37;;;;;;;8.40;7.60;;;19.40;99.90;;;;;;5010749;28;20196;-74
2022/06/05 02:05:13;;;;;;;8.17;7.37;;;19.40;99.90;;;;;;5000938;28;20216;-74
2022/06/05 02:07:46;;;;;;;9.93;7.50;;;19.50;99.90;;;;;;5006386;28;20575;-74
2022/06/05 02:10:18;;;;;;;8.00;7.20;;;19.50;99.90;;;;;;5010436;28;20199;-75
2022/06/05 02:12:45;;;;;;;8.33;7.50;;;19.50;99.90;;;;;;5008785;28;20196;-74
2022/06/05 02:15:12;;;;;;;8.33;7.53;;;19.50;99.90;;;;;;5009594;28;20222;-74
2022/06/05 02:17:39;;;;;;;8.37;7.50;;;19.40;99.90;;;;;;5009323;28;20224;-74
2022/06/05 02:20:08;;;;;;;8.17;7.33;;;19.30;99.90;;;;;;5010227;28;20203;-75
2022/06/05 02:22:47;;;;;;;8.50;7.33;;;19.30;99.90;;;;;;5002664;28;20691;-75
2022/06/05 02:25:16;;;;;;;8.23;7.43;;;19.30;99.90;;;;;;5003664;28;20223;-74
2022/06/05 02:27:43;;;;;;;8.00;7.10;;;19.30;99.90;;;;;;5009335;28;20211;-75
2022/06/05 02:30:12;;;;;;;9.23;8.10;;;19.30;99.90;;;;;;5007392;28;20630;-74
2022/06/05 02:32:57;;;;;;;8.63;7.60;;;19.30;99.90;;;;;;5009115;28;20679;-73
2022/06/05 02:35:42;;;;;;;9.47;7.47;;;19.30;99.90;;;;;;5009622;28;20232;-74
2022/06/05 02:38:40;;;;;;;8.87;7.97;;;19.30;99.90;;;;;;5002566;28;20578;-74
2022/06/05 02:41:17;;;;;;;10.50;7.87;;;19.30;99.90;;;;;;4970903;28;20203;-74
2022/06/05 02:47:09;;;;;;;9.33;7.33;;;19.30;99.90;;;;;;5008915;28;20586;-74
2022/06/05 02:49:43;;;;;;;8.23;7.33;;;19.30;99.90;;;;;;5002292;28;20208;-74
2022/06/05 02:52:10;;;;;;;8.60;7.70;;;19.40;99.90;;;;;;5002845;28;20202;-74
2022/06/05 02:54:47;;;;;;;8.60;7.57;;;19.40;99.90;;;;;;5009329;28;20207;-74
2022/06/05 02:57:13;;;;;;;8.93;7.77;;;19.50;99.90;;;;;;5003540;28;20216;-74
2022/06/05 02:59:40;;;;;;;8.50;7.60;;;19.50;99.90;;;;;;5001709;28;20196;-74
2022/06/05 03:04:52;;;;;;;7.63;6.77;;;19.50;99.90;;;;;;5008650;28;20273;-74
2022/06/05 03:07:19;;;;;;;10.13;7.60;;;19.50;99.90;;;;;;4991405;28;20604;-74
2022/06/05 03:09:46;;;;;;;8.23;7.27;;;19.60;99.90;;;;;;5008978;28;20208;-74
2022/06/05 03:12:12;;;;;;;11.20;7.33;;;19.60;99.90;;;;;;5009812;28;20200;-74
2022/06/05 03:14:39;;;;;;;8.70;7.80;;;19.60;99.90;;;;;;5008920;28;20664;-71
2022/06/05 03:17:05;;;;;;;8.50;7.60;;;19.60;99.90;;;;;;5004510;28;20220;-74
2022/06/05 03:19:32;;;;;;;8.20;7.40;;;19.60;99.90;;;;;;5010533;28;20200;-75
2022/06/05 03:21:59;;;;;;;8.80;7.57;;;19.70;99.90;;;;;;5012721;28;20204;-74
2022/06/05 03:24:26;;;;;;;10.00;7.07;;;19.70;99.90;;;;;;5008725;28;20593;-74
2022/06/05 03:26:53;;;;;;;8.80;7.33;;;19.70;99.90;;;;;;5013187;28;20238;-74
2022/06/05 03:29:20;;;;;;;8.40;7.43;;;19.70;99.90;;;;;;5012747;28;20696;-74
2022/06/05 03:31:47;;;;;;;8.67;7.37;;;19.70;99.90;;;;;;5013088;28;20202;-73
2022/06/05 03:34:15;;;;;;;8.17;7.37;;;19.70;99.90;;;;;;4995132;28;20207;-75
2022/06/05 03:36:41;;;;;;;8.77;7.50;;;19.80;99.90;;;;;;5012431;28;20232;-75
2022/06/05 03:39:09;;;;;;;9.40;7.60;;;19.60;99.90;;;;;;5012678;28;20188;-74
2022/06/05 03:41:36;;;;;;;8.20;7.40;;;19.50;99.90;;;;;;5008977;28;20659;-74
2022/06/05 03:44:03;;;;;;;8.63;7.50;;;19.60;99.90;;;;;;5011423;28;20192;-74
2022/06/05 03:46:33;;;;;;;9.47;8.33;;;19.60;99.90;;;;;;5011137;28;20647;-74
2022/06/05 03:48:59;;;;;;;9.17;7.67;;;19.70;99.90;;;;;;5006317;28;20691;-74
2022/06/05 03:51:26;;;;;;;8.43;7.63;;;19.70;99.90;;;;;;5011788;28;20216;-74
2022/06/05 03:53:53;;;;;;;11.10;7.60;;;19.60;99.90;;;;;;5010854;28;20270;-74
2022/06/05 03:56:22;;;;;;;8.57;7.70;;;19.60;99.90;;;;;;5010939;28;20638;-74
2022/06/05 03:58:51;;;;;;;8.80;7.90;;;19.60;99.90;;;;;;5006705;28;20224;-74
2022/06/05 04:01:19;;;;;;;8.63;7.73;;;19.60;99.90;;;;;;5011481;28;20192;-74
2022/06/05 04:03:46;;;;;;;8.63;7.73;;;19.70;99.90;;;;;;5011044;28;20696;-74
2022/06/05 04:06:19;;;;;;;8.63;7.53;;;19.60;99.90;;;;;;5010113;28;20219;-74
2022/06/05 04:08:46;;;;;;;8.60;7.80;;;19.60;99.90;;;;;;5010615;28;20208;-74
2022/06/05 04:11:16;;;;;;;7.90;7.10;;;19.60;99.90;;;;;;5011545;28;20211;-74
2022/06/05 04:13:43;;;;;;;10.73;7.77;;;19.60;99.90;;;;;;5010396;28;20207;-75
2022/06/05 04:16:16;;;;;;;9.17;8.20;;;19.70;99.90;;;;;;5004869;28;20235;-74
2022/06/05 04:18:43;;;;;;;9.20;8.07;;;19.80;99.90;;;;;;5010154;28;20598;-74
2022/06/05 04:21:16;;;;;;;9.37;8.03;;;19.80;99.90;;;;;;4994452;28;20192;-74
2022/06/05 04:23:43;;;;;;;10.43;8.33;;;19.90;99.90;;;;;;5008184;28;20204;-73
2022/06/05 04:26:14;;;;;;;9.10;7.53;;;19.90;99.90;;;;;;4993496;28;20266;-72
2022/06/05 04:28:42;;;;;;;10.13;8.20;;;19.80;99.90;;;;;;5010057;28;20742;-74
2022/06/05 04:31:30;;;;;;;9.40;8.50;;;19.80;99.90;;;;;;4972875;28;1062213;-74
2022/06/05 04:34:00;;;;;;;10.07;8.30;;;19.90;99.90;;;;;;5011388;28;20200;-74
2022/06/05 04:36:27;;;;;;;11.10;8.57;;;19.90;99.90;;;;;;5011712;28;20307;-74
2022/06/05 04:38:54;;;;;;;9.25;7.85;;;19.80;99.90;;;;;;5006702;28;20600;-74
2022/06/05 04:41:22;;;;;;;8.90;8.00;;;19.80;99.90;;;;;;5012131;28;20208;-74
2022/06/05 04:43:49;;;;;;;9.43;8.00;;;19.80;99.90;;;;;;5011172;28;20216;-75
2022/06/05 04:46:18;;;;;;;9.20;7.93;;;19.90;99.90;;;;;;5009046;28;20282;-74
2022/06/05 04:48:45;;;;;;;10.50;7.80;;;19.80;99.90;;;;;;5008811;28;20205;-74
2022/06/05 04:51:15;;;;;;;10.10;8.90;;;20.00;99.90;;;;;;5011681;28;20254;-74
2022/06/05 04:53:42;;;;;;;9.57;7.87;;;19.90;99.90;;;;;;5011208;28;20215;-74
2022/06/05 04:56:14;;;;;;;10.20;8.37;;;19.90;99.90;;;;;;5010097;28;20216;-75
2022/06/05 04:58:41;;;;;;;9.47;8.10;;;19.90;99.90;;;;;;5010801;28;20640;-74
2022/06/05 05:01:15;;;;;;;9.77;8.10;;;19.90;99.90;;;;;;5011519;28;20695;-75
2022/06/05 05:03:43;;;;;;;9.50;8.50;;;19.80;99.90;;;;;;5010661;28;20246;-75
2022/06/05 05:06:10;;;;;;;11.83;8.37;;;19.80;99.90;;;;;;5010553;28;20212;-75
2022/06/05 05:08:37;;;;;;;9.97;8.40;;;19.80;99.90;;;;;;5010683;28;20211;-74
2022/06/05 05:11:04;;;;;;;9.30;8.30;;;19.90;99.90;;;;;;5011177;28;20215;-75
2022/06/05 05:13:31;;;;;;;9.33;8.03;;;19.90;99.90;;;;;;5005106;28;20205;-74
2022/06/05 05:15:57;;;;;;;9.20;8.17;;;19.70;99.90;;;;;;5009885;28;20708;-74
2022/06/05 05:18:25;;;;;;;10.37;7.83;;;19.80;99.90;;;;;;5011051;28;20770;-74
2022/06/05 05:20:52;;;;;;;9.33;8.10;;;19.80;99.90;;;;;;5010512;28;20203;-74
2022/06/05 05:23:19;;;;;;;11.60;7.90;;;19.80;99.90;;;;;;5008427;28;20203;-75
2022/06/05 05:25:47;;;;;;;8.80;7.90;;;19.80;99.90;;;;;;4993455;28;20580;-74
2022/06/05 05:28:15;;;;;;;9.83;7.50;;;19.80;99.90;;;;;;5011105;28;20211;-75
2022/06/05 05:30:45;;;;;;;9.17;8.17;;;19.70;99.90;;;;;;5005857;28;20664;-74
2022/06/05 05:33:13;;;;;;;9.60;7.60;;;19.70;99.90;;;;;;4993555;28;20636;-75
2022/06/05 05:35:40;;;;;;;8.80;7.90;;;19.80;99.90;;;;;;5009501;28;20224;-73
2022/06/05 05:38:07;;;;;;;8.93;8.03;;;19.80;99.90;;;;;;5010697;28;20219;-75
2022/06/05 05:43:19;;;;;;;8.97;7.70;;;19.90;99.90;;;;;;5010233;28;20200;-75
2022/06/05 05:45:46;;;;;;;9.53;8.50;;;19.90;99.90;;;;;;4991998;28;20307;-75
2022/06/05 05:48:13;;;;;;;9.02;8.13;;;20.10;99.90;;;;;;4992921;28;20279;-76
2022/06/05 05:50:43;;;;;;;9.25;7.82;;;20.20;99.90;;;;;;5007763;28;20200;-74
2022/06/05 05:53:10;;;;;;;9.40;8.20;;;20.20;99.90;;;;;;5010385;28;20224;-76
2022/06/05 05:55:37;;;;;;;9.57;8.03;;;20.20;99.90;;;;;;4992820;28;20224;-76
2022/06/05 05:58:04;;;;;;;11.67;7.97;;;20.20;99.90;;;;;;5008617;28;20212;-73
2022/06/05 06:00:30;;;;;;;9.80;8.25;;;20.20;99.90;;;;;;5006100;28;20197;-75
2022/06/05 06:02:58;;;;;;;9.80;8.52;;;20.20;99.90;;;;;;5009648;28;20192;-74
2022/06/05 06:05:31;;;;;;;9.23;8.23;;;20.20;99.90;;;;;;4993390;28;20220;-73
2022/06/05 06:07:58;;;;;;;9.77;8.60;;;20.10;99.90;;;;;;5004358;28;20201;-73
2022/06/05 06:10:25;;;;;;;10.80;8.70;;;19.90;99.90;;;;;;5009880;28;20211;-73
2022/06/05 06:12:51;;;;;;;9.90;8.73;;;19.70;99.90;;;;;;5009726;28;20207;-72
2022/06/05 06:15:18;;;;;;;10.33;9.17;;;19.60;99.90;;;;;;5005954;28;20220;-72
2022/06/05 06:17:45;;;;;;;10.70;9.60;;;19.40;99.90;;;;;;5007196;28;20220;-72
2022/06/05 06:20:12;;;;;;;11.67;10.10;;;19.30;99.90;;;;;;5009912;28;20223;-72
2022/06/05 06:22:41;;;;;;;11.73;10.23;;;19.20;99.90;;;;;;5009131;28;20711;-72
2022/06/05 06:25:08;;;;;;;11.57;9.93;;;19.10;99.90;;;;;;4995141;28;20208;-72
2022/06/05 06:27:35;;;;;;;13.77;10.03;;;19.10;99.90;;;;;;5009703;28;20200;-72
2022/06/05 06:30:09;;;;;;;12.37;10.30;;;18.90;99.90;;;;;;5002623;28;20257;-72
2022/06/05 06:32:36;;;;;;;12.20;10.30;;;18.90;99.90;;;;;;5006002;28;20205;-72
2022/06/05 06:35:03;;;;;;;12.23;10.03;;;19.00;99.90;;;;;;5008944;28;20274;-73
2022/06/05 06:37:30;;;;;;;13.10;9.73;;;19.00;99.90;;;;;;5010069;28;20204;-73
2022/06/05 06:39:56;;;;;;;11.87;10.20;;;19.20;99.90;;;;;;5008614;28;20204;-73
2022/06/05 06:42:23;;;;;;;13.53;10.20;;;19.30;99.90;;;;;;5008549;28;20196;-73
2022/06/05 06:44:50;;;;;;;11.20;10.00;;;19.40;99.90;;;;;;5008443;28;20249;-73
2022/06/05 06:47:17;;;;;;;11.20;9.67;;;19.50;99.90;;;;;;5009506;28;20206;-73
2022/06/05 06:49:43;;;;;;;12.17;9.70;;;19.70;99.90;;;;;;5008554;28;20200;-73
2022/06/05 06:52:10;;;;;;;10.27;8.70;;;19.80;99.90;;;;;;5009339;28;20569;-73
2022/06/05 06:54:37;;;;;;;10.30;9.20;;;20.10;99.90;;;;;;5008691;28;20227;-73
2022/06/05 06:57:04;;;;;;;10.00;9.00;;;20.20;99.90;;;;;;5008929;28;20207;-73
2022/06/05 06:59:30;;;;;;;9.93;8.93;;;20.40;99.90;;;;;;5009382;28;20217;-73
2022/06/05 07:01:57;;;;;;;11.15;9.15;;;20.50;99.90;;;;;;5008408;28;20204;-74
2022/06/05 07:04:23;;;;;;;9.65;8.65;;;20.60;99.90;;;;;;4991409;28;20200;-73
2022/06/05 07:06:50;;;;;;;10.05;8.95;;;20.80;99.90;;;;;;5005687;28;20189;-73
2022/06/05 07:09:18;;;;;;;13.57;9.10;;;20.70;99.90;;;;;;5009157;28;20343;-73
2022/06/05 07:11:44;;;;;;;10.37;9.07;;;20.80;99.90;;;;;;5008926;28;20211;-73
2022/06/05 07:14:11;;;;;;;9.40;8.45;;;20.80;99.90;;;;;;4990694;28;20729;-71
2022/06/05 07:16:38;;;;;;;9.43;8.40;;;20.90;99.90;;;;;;5005280;28;20224;-74
2022/06/05 07:19:05;;;;;;;9.50;8.50;;;21.20;99.90;;;;;;5001623;28;20212;-72
2022/06/05 07:21:32;;;;;;;10.32;8.32;;;21.50;99.90;;;;;;5008967;28;20470;-74
2022/06/05 07:24:00;;;;;;;10.02;8.38;;;22.00;99.90;;;;;;5002594;28;20192;-74
2022/06/05 07:26:29;;;;;;;9.70;8.70;;;22.40;99.90;;;;;;5008766;28;20220;-74
2022/06/05 07:28:58;;;;;;;10.05;8.20;;;22.60;99.90;;;;;;5008403;28;20200;-74
2022/06/05 07:31:29;;;;;;;9.32;8.25;;;22.40;99.90;;;;;;5008920;28;20207;-74
2022/06/05 07:33:57;;;;;;;11.45;8.57;;;22.00;99.90;;;;;;5001037;28;20664;-73
2022/06/05 07:36:26;;;;;;;10.55;9.35;;;22.00;99.90;;;;;;5009007;28;20220;-74
2022/06/05 07:38:54;;;;;;;11.05;8.23;;;21.90;99.90;;;;;;5008339;28;20231;-74
2022/06/05 07:41:29;;;;;;;10.77;9.15;;;22.00;99.90;;;;;;5008351;28;20283;-74
2022/06/05 07:43:57;;;;;;;9.80;8.75;;;22.20;99.90;;;;;;5008284;28;20251;-73
2022/06/05 07:46:24;;;;;;;10.40;8.02;;;22.40;99.90;;;;;;5008660;28;20696;-73
2022/06/05 07:48:50;;;;;;;9.98;8.35;;;22.40;99.90;;;;;;5004710;28;20665;-73
2022/06/05 07:54:27;;;;;;;10.23;8.77;;;22.30;99.90;;;;;;5008752;28;20203;-74
2022/06/05 07:56:56;;;;;;;9.45;8.45;;;22.30;99.90;;;;;;5006011;28;20330;-74
2022/06/05 07:59:24;;;;;;;11.65;9.43;;;22.20;99.90;;;;;;5003398;28;20220;-74
2022/06/05 08:01:56;;;;;;;10.90;8.98;;;21.90;99.90;;;;;;5007835;28;20287;-74
2022/06/05 08:04:24;;;;;;;12.45;8.85;;;21.80;99.90;;;;;;4990982;28;20247;-73
2022/06/05 08:06:52;;;;;;;11.18;9.07;;;21.80;99.90;;;;;;5005666;28;20189;-73
2022/06/05 08:09:19;;;;;;;11.77;9.07;;;21.80;99.90;;;;;;5012103;28;20199;-74
2022/06/05 08:11:46;;;;;;;10.45;8.60;;;21.80;99.90;;;;;;5010847;28;20207;-74
2022/06/05 08:14:14;;;;;;;13.63;9.45;;;21.70;99.90;;;;;;5007540;28;20642;-73
2022/06/05 08:16:43;;;;;;;10.18;9.10;;;21.50;99.90;;;;;;5008272;28;20228;-73
2022/06/05 08:19:12;;;;;;;12.35;9.50;;;21.50;99.90;;;;;;5011540;28;20786;-74
2022/06/05 08:21:40;;;;;;;10.95;9.82;;;21.40;99.90;;;;;;5011654;28;20196;-73
2022/06/05 08:24:08;;;;;;;10.75;9.57;;;21.30;99.90;;;;;;5004184;28;20650;-74
2022/06/05 08:26:35;;;;;;;10.23;9.23;;;21.20;99.90;;;;;;5011209;28;20223;-73
2022/06/05 08:29:02;;;;;;;10.85;9.50;;;21.20;99.90;;;;;;5011109;28;20196;-74
2022/06/05 08:31:29;;;;;;;10.73;9.63;;;21.00;99.90;;;;;;5011574;28;20207;-74
2022/06/05 08:33:58;;;;;;;13.45;9.68;;;20.90;99.90;;;;;;5009213;28;20197;-74
2022/06/05 08:36:25;;;;;;;10.30;9.20;;;21.10;99.90;;;;;;5011126;28;20670;-74
2022/06/05 08:42:02;;;;;;;11.00;9.40;;;21.10;99.90;;;;;;5010828;28;20679;-74
2022/06/05 08:44:42;;;;;;;10.70;9.25;;;21.10;99.90;;;;;;5006612;28;20204;-75
2022/06/05 08:47:34;;;;;;;11.23;9.50;;;21.30;99.90;;;;;;5011163;28;20215;-74
2022/06/05 08:50:03;;;;;;;11.52;9.07;;;21.40;99.90;;;;;;5010612;28;20262;-74
2022/06/05 08:52:48;;;;;;;9.85;8.75;;;21.60;99.90;;;;;;5011053;28;20266;-74
2022/06/05 08:55:24;;;;;;;10.60;9.30;;;21.50;99.90;;;;;;5004909;28;20626;-73
2022/06/05 08:58:16;;;;;;;12.27;9.70;;;21.70;99.90;;;;;;5010522;28;20195;-74
2022/06/05 09:00:49;;;;;;;10.63;9.32;;;21.80;99.90;;;;;;5007571;28;20223;-74
2022/06/05 09:03:23;;;;;;;12.30;9.25;;;21.90;99.90;;;;;;5011221;28;20215;-74
2022/06/05 09:05:58;;;;;;;10.82;9.35;;;21.70;99.90;;;;;;5010078;28;20303;-74
2022/06/05 09:08:34;;;;;;;11.18;9.13;;;21.70;99.90;;;;;;5008549;28;20206;-74
2022/06/05 09:11:05;;;;;;;10.65;9.25;;;21.70;99.90;;;;;;5010356;28;20208;-74
2022/06/05 09:13:59;;;;;;;11.63;8.52;;;21.60;99.90;;;;;;5010562;28;20199;-74
2022/06/05 09:16:30;;;;;;;11.10;9.23;;;21.50;99.90;;;;;;5005289;28;20228;-74
2022/06/05 09:18:58;;;;;;;10.25;8.80;;;21.50;99.90;;;;;;5004196;28;20304;-74
2022/06/05 09:21:35;;;;;;;13.05;9.20;;;21.50;99.90;;;;;;5010980;28;20206;-74
2022/06/05 09:24:02;;;;;;;10.73;9.05;;;21.30;99.90;;;;;;5009977;28;20602;-74
2022/06/05 09:26:57;;;;;;;10.13;9.05;;;21.20;99.90;;;;;;5008158;28;20290;-74
2022/06/05 09:29:45;;;;;;;10.57;9.40;;;21.10;99.90;;;;;;5010531;28;20212;-74
2022/06/05 09:32:24;;;;;;;10.75;9.65;;;21.10;99.90;;;;;;5010503;28;20196;-74
2022/06/05 09:35:10;;;;;;;11.98;9.07;;;21.10;99.90;;;;;;5007955;28;20223;-74
2022/06/05 09:37:48;;;;;;;10.18;9.13;;;20.90;99.90;;;;;;5006949;28;20656;-74
2022/06/05 09:40:30;;;;;;;10.25;9.18;;;20.90;99.90;;;;;;5004325;28;20231;-75
2022/06/05 09:43:16;;;;;;;10.98;9.43;;;20.90;99.90;;;;;;5009679;28;20200;-74
2022/06/05 09:45:56;;;;;;;11.15;9.20;;;21.00;99.90;;;;;;5005268;28;20270;-74
2022/06/05 09:48:47;;;;;;;11.68;9.25;;;21.00;99.90;;;;;;5010425;28;20192;-72
2022/06/05 09:51:17;;;;;;;10.43;9.32;;;21.10;99.90;;;;;;5010524;28;20224;-74
2022/06/05 09:54:04;;;;;;;10.43;9.27;;;21.20;99.90;;;;;;5006955;28;20205;-75
2022/06/05 09:59:52;;;;;;;10.30;9.10;;;21.20;99.90;;;;;;5006104;28;20219;-75
2022/06/05 10:02:22;;;;;;;10.77;9.05;;;21.20;99.90;;;;;;4983475;28;20197;-74
2022/06/05 10:04:50;;;;;;;12.52;9.25;;;21.30;99.90;;;;;;5007268;28;20216;-75
2022/06/05 10:07:40;;;;;;;10.30;8.73;;;21.50;99.90;;;;;;5010499;28;20234;-75
2022/06/05 10:10:18;;;;;;;10.45;9.13;;;21.50;99.90;;;;;;4990379;28;20193;-74
2022/06/05 10:12:54;;;;;;;9.93;8.93;;;21.60;99.90;;;;;;5007623;28;20205;-73
2022/06/05 10:15:38;;;;;;;11.75;9.77;;;21.70;99.90;;;;;;5009448;28;20723;-74
2022/06/05 10:18:14;;;;;;;10.35;9.02;;;21.60;99.90;;;;;;5009753;28;20203;-74
2022/06/05 10:21:00;;;;;;;12.00;8.80;;;21.80;99.90;;;;;;5007883;28;20196;-73
2022/06/05 10:23:27;;;;;;;10.07;8.77;;;22.10;99.90;;;;;;5009552;28;20603;-75
2022/06/05 10:26:18;;;;;;;9.73;8.63;;;22.40;99.90;;;;;;5009172;28;20220;-75
2022/06/05 10:28:46;;;;;;;10.20;9.10;;;22.70;99.90;;;;;;4991133;28;20680;-76
2022/06/05 10:31:27;;;;;;;9.15;8.25;;;23.10;99.90;;;;;;4990915;28;20204;-71
2022/06/05 10:34:09;;;;;;;11.02;8.40;;;23.70;99.90;;;;;;5008108;28;20647;-73
2022/06/05 10:36:50;;;;;;;10.45;8.05;;;24.50;99.90;;;;;;5008860;28;20255;-72
2022/06/05 10:39:46;;;;;;;9.35;8.35;;;25.30;99.90;;;;;;5000274;28;20279;-73
2022/06/05 10:42:43;;;;;;;8.43;7.60;;;26.10;99.90;;;;;;5004491;28;20207;-74
2022/06/05 10:45:16;;;;;;;13.75;8.13;;;26.70;99.90;;;;;;5004628;28;20212;-71
2022/06/05 10:48:06;;;;;;;8.30;7.50;;;27.00;99.90;;;;;;4992372;28;20192;-74
2022/06/05 10:50:54;;;;;;;7.63;6.80;;;27.20;99.90;;;;;;5008622;28;20203;-75
2022/06/05 10:53:42;;;;;;;7.05;6.35;;;27.40;99.90;;;;;;5010378;28;20567;-75
2022/06/05 10:56:32;;;;;;;7.47;6.75;;;27.50;99.90;;;;;;4997940;28;20224;-73
2022/06/05 10:59:05;;;;;;;7.68;6.90;;;27.50;99.90;;;;;;5008112;28;20217;-74
2022/06/05 11:01:54;;;;;;;7.65;6.93;;;27.20;99.90;;;;;;5009211;28;20199;-74
2022/06/05 11:04:57;;;;;;;8.32;7.47;;;27.10;99.90;;;;;;4984793;28;20584;-75
2022/06/05 11:07:36;;;;;;;9.95;7.07;;;26.90;99.90;;;;;;5004392;28;20203;-74
2022/06/05 11:13:53;;;;;;;8.70;7.07;;;26.10;99.90;;;;;;4995389;28;20196;-75
2022/06/05 11:16:48;;;;;;;9.40;7.88;;;26.10;99.90;;;;;;5004964;28;20227;-74
2022/06/05 11:19:42;;;;;;;9.07;7.75;;;25.90;99.90;;;;;;5002895;28;20254;-75
2022/06/05 11:22:13;;;;;;;9.35;8.02;;;26.00;99.90;;;;;;5001427;28;20198;-74
2022/06/05 11:24:55;;;;;;;9.50;8.48;;;25.80;99.90;;;;;;5007801;28;20234;-75
2022/06/05 11:27:38;;;;;;;8.75;7.85;;;25.70;99.90;;;;;;5003042;28;20215;-74
2022/06/05 11:30:18;;;;;;;8.90;7.72;;;25.80;99.90;;;;;;5007830;28;20204;-75
2022/06/05 11:33:13;;;;;;;8.63;7.72;;;25.80;99.90;;;;;;5001236;28;20204;-75
2022/06/05 11:36:05;;;;;;;11.15;8.13;;;25.90;99.90;;;;;;5007527;28;20499;-75
2022/06/05 11:38:58;;;;;;;9.70;8.15;;;26.30;99.90;;;;;;5004177;28;20196;-72
2022/06/05 11:41:36;;;;;;;8.32;6.68;;;26.20;99.90;;;;;;4993041;28;20193;-74
2022/06/05 11:44:21;;;;;;;10.27;7.72;;;26.20;99.90;;;;;;5010958;28;20200;-75
2022/06/05 11:47:00;;;;;;;9.20;7.88;;;26.10;99.90;;;;;;5010632;28;20200;-75
2022/06/05 11:49:29;;;;;;;8.40;7.53;;;25.90;99.90;;;;;;5007496;28;20196;-74
2022/06/05 11:52:07;;;;;;;8.80;7.90;;;25.60;99.90;;;;;;5010670;28;20205;-75
2022/06/05 11:55:09;;;;;;;9.50;8.52;;;25.40;99.90;;;;;;5010886;28;20203;-72
2022/06/05 11:57:50;;;;;;;11.18;9.57;;;25.20;99.90;;;;;;5011559;28;20261;-74
2022/06/05 12:00:28;;;;;;;13.05;10.13;;;25.00;99.90;;;;;;5006478;28;20255;-72
2022/06/05 12:03:16;;;;;;;11.98;10.20;;;24.80;99.90;;;;;;5009859;28;20204;-75
2022/06/05 12:05:59;;;;;;;13.38;10.35;;;24.60;99.90;;;;;;5005443;28;20227;-75
2022/06/05 12:08:33;;;;;;;11.60;10.40;;;24.50;99.90;;;;;;5011048;28;20193;-75
2022/06/05 12:11:08;;;;;;;13.18;10.18;;;24.40;99.90;;;;;;5010583;28;20201;-75
2022/06/05 12:13:51;;;;;;;10.70;9.60;;;24.30;99.90;;;;;;5011809;28;20196;-75
2022/06/05 12:17:02;;;;;;;11.45;9.32;;;24.30;99.90;;;;;;5004945;28;20219;-75
2022/06/05 12:19:53;;;;;;;11.95;10.57;;;24.30;99.90;;;;;;5007296;28;20696;-74
2022/06/05 12:22:43;;;;;;;11.30;10.13;;;24.20;99.90;;;;;;5000554;28;20216;-75
2022/06/05 12:25:34;;;;;;;11.93;10.15;;;24.10;99.90;;;;;;5003146;28;20224;-75
2022/06/05 12:28:28;;;;;;;11.63;10.23;;;24.20;99.90;;;;;;5010094;28;20189;-75
2022/06/05 12:31:06;;;;;;;12.65;10.32;;;24.40;99.90;;;;;;5005065;28;20208;-75
2022/06/05 12:33:49;;;;;;;13.27;10.05;;;24.50;99.90;;;;;;5010454;28;20250;-75
2022/06/05 12:36:29;;;;;;;9.93;8.90;;;24.80;99.90;;;;;;5003695;28;20220;-75
2022/06/05 12:38:59;;;;;;;10.75;8.95;;;25.00;99.90;;;;;;5008358;28;20208;-75
2022/06/05 12:41:46;;;;;;;9.73;8.73;;;25.50;99.90;;;;;;5003409;28;20207;-76
2022/06/05 12:44:25;;;;;;;10.50;8.98;;;25.70;99.90;;;;;;5002855;28;20188;-75
2022/06/05 12:47:01;;;;;;;9.10;8.00;;;26.20;99.90;;;;;;5007675;28;20196;-76
2022/06/05 12:49:54;;;;;;;8.43;7.57;;;26.50;99.90;;;;;;5009394;28;20207;-75
2022/06/05 12:52:57;;;;;;;9.07;8.18;;;27.00;99.90;;;;;;5003786;28;20262;-76
2022/06/05 12:55:34;;;;;;;8.70;7.80;;;27.90;99.90;;;;;;4980943;28;20258;-76
2022/06/05 12:58:07;;;;;;;8.50;7.38;;;27.70;99.90;;;;;;5004606;28;20203;-75
2022/06/05 13:01:13;;;;;;;8.80;8.00;;;28.20;99.90;;;;;;4993246;28;20220;-75
2022/06/05 13:03:58;;;;;;;9.32;8.32;;;28.30;99.90;;;;;;4990599;28;20249;-76
2022/06/05 13:06:39;;;;;;;12.00;8.73;;;28.10;99.90;;;;;;5004491;28;20343;-76
2022/06/05 13:09:31;;;;;;;9.95;8.95;;;27.60;99.90;;;;;;5007992;28;20251;-75
2022/06/05 13:12:20;;;;;;;10.27;9.15;;;27.20;99.90;;;;;;5006790;28;20189;-75
2022/06/05 13:15:03;;;;;;;10.27;9.00;;;26.20;99.90;;;;;;5006749;28;20220;-75
2022/06/05 13:17:53;;;;;;;15.20;10.00;;;25.60;99.90;;;;;;5007285;28;20200;-75
2022/06/05 13:20:34;;;;;;;11.55;9.32;;;25.60;99.90;;;;;;5002752;28;20238;-75
2022/06/05 13:23:11;;;;;;;12.32;10.57;;;25.60;99.90;;;;;;5006536;28;20193;-75
2022/06/05 13:25:54;;;;;;;11.63;9.95;;;25.20;99.90;;;;;;5003549;28;20224;-73
2022/06/05 13:28:40;;;;;;;13.30;10.98;;;25.00;99.90;;;;;;5002820;28;20635;-74
2022/06/05 13:31:41;;;;;;;14.05;11.75;;;24.80;99.90;;;;;;5007091;28;20204;-73
2022/06/05 13:34:11;;;;;;;15.18;11.32;;;24.90;99.90;;;;;;5004232;28;20196;-74
2022/06/05 13:37:03;;;;;;;13.77;10.82;;;25.00;99.90;;;;;;5007202;28;20239;-74
2022/06/05 13:39:50;;;;;;;14.95;12.23;;;25.10;99.90;;;;;;5007947;28;20224;-75